sensor_id;sensor_type;location;lat;lon;timestamp;P1;durP1;ratioP1;P2;durP2;ratioP2
15454;SDS011;21057;51.024;7.540;2022-11-10T00:00:32;22.43;;;20.87;;
15454;SDS011;21057;51.024;7.540;2022-11-10T00:02:59;21.50;;;20.07;;
15454;SDS011;21057;51.024;7.540;2022-11-10T00:05:27;21.73;;;20.10;;
15454;SDS011;21057;51.024;7.540;2022-11-10T00:07:54;21.37;;;19.87;;
15454;SDS011;21057;51.024;7.540;2022-11-10T00:10:21;20.83;;;19.53;;
15454;SDS011;21057;51.024;7.540;2022-11-10T00:12:49;22.10;;;20.20;;
15454;SDS011;21057;51.024;7.540;2022-11-10T00:15:17;21.80;;;19.93;;
15454;SDS011;21057;51.024;7.540;2022-11-10T00:18:02;22.10;;;20.33;;
15454;SDS011;21057;51.024;7.540;2022-11-10T00:20:29;21.47;;;20.07;;
15454;SDS011;21057;51.024;7.540;2022-11-10T00:22:56;22.30;;;20.53;;
15454;SDS011;21057;51.024;7.540;2022-11-10T00:25:23;20.80;;;19.50;;
15454;SDS011;21057;51.024;7.540;2022-11-10T00:27:52;21.57;;;20.17;;
15454;SDS011;21057;51.024;7.540;2022-11-10T00:30:19;22.40;;;20.43;;
15454;SDS011;21057;51.024;7.540;2022-11-10T00:32:46;21.40;;;20.10;;
15454;SDS011;21057;51.024;7.540;2022-11-10T00:35:13;21.87;;;20.57;;
15454;SDS011;21057;51.024;7.540;2022-11-10T00:37:40;20.77;;;19.57;;
15454;SDS011;21057;51.024;7.540;2022-11-10T00:40:07;23.50;;;21.23;;
15454;SDS011;21057;51.024;7.540;2022-11-10T00:42:34;21.13;;;19.93;;
15454;SDS011;21057;51.024;7.540;2022-11-10T00:45:03;20.90;;;19.77;;
15454;SDS011;21057;51.024;7.540;2022-11-10T00:47:30;21.53;;;20.33;;
15454;SDS011;21057;51.024;7.540;2022-11-10T00:49:57;22.93;;;20.87;;
15454;SDS011;21057;51.024;7.540;2022-11-10T00:52:24;21.97;;;20.57;;
15454;SDS011;21057;51.024;7.540;2022-11-10T00:54:51;22.07;;;20.67;;
15454;SDS011;21057;51.024;7.540;2022-11-10T00:57:18;22.80;;;20.87;;
15454;SDS011;21057;51.024;7.540;2022-11-10T00:59:44;24.00;;;22.23;;
15454;SDS011;21057;51.024;7.540;2022-11-10T01:02:13;22.70;;;21.00;;
15454;SDS011;21057;51.024;7.540;2022-11-10T01:04:39;21.83;;;20.50;;
15454;SDS011;21057;51.024;7.540;2022-11-10T01:07:06;23.07;;;21.47;;
15454;SDS011;21057;51.024;7.540;2022-11-10T01:09:33;22.13;;;20.53;;
15454;SDS011;21057;51.024;7.540;2022-11-10T01:12:00;22.47;;;20.70;;
15454;SDS011;21057;51.024;7.540;2022-11-10T01:14:27;21.93;;;20.37;;
15454;SDS011;21057;51.024;7.540;2022-11-10T01:16:54;23.00;;;21.60;;
15454;SDS011;21057;51.024;7.540;2022-11-10T01:19:22;22.50;;;20.67;;
15454;SDS011;21057;51.024;7.540;2022-11-10T01:21:49;23.10;;;21.40;;
15454;SDS011;21057;51.024;7.540;2022-11-10T01:24:17;23.30;;;21.57;;
15454;SDS011;21057;51.024;7.540;2022-11-10T01:26:45;22.67;;;21.30;;
15454;SDS011;21057;51.024;7.540;2022-11-10T01:29:13;23.80;;;21.67;;
15454;SDS011;21057;51.024;7.540;2022-11-10T01:31:39;22.37;;;21.03;;
15454;SDS011;21057;51.024;7.540;2022-11-10T01:34:06;23.77;;;21.93;;
15454;SDS011;21057;51.024;7.540;2022-11-10T01:36:34;24.20;;;22.07;;
15454;SDS011;21057;51.024;7.540;2022-11-10T01:39:01;22.53;;;21.13;;
15454;SDS011;21057;51.024;7.540;2022-11-10T01:41:28;22.90;;;21.30;;
15454;SDS011;21057;51.024;7.540;2022-11-10T01:44:10;22.50;;;21.00;;
15454;SDS011;21057;51.024;7.540;2022-11-10T01:46:38;21.90;;;20.60;;
15454;SDS011;21057;51.024;7.540;2022-11-10T01:49:05;23.17;;;21.53;;
15454;SDS011;21057;51.024;7.540;2022-11-10T01:51:33;21.80;;;20.50;;
15454;SDS011;21057;51.024;7.540;2022-11-10T01:54:04;22.57;;;21.17;;
15454;SDS011;21057;51.024;7.540;2022-11-10T01:56:36;22.37;;;20.63;;
15454;SDS011;21057;51.024;7.540;2022-11-10T01:59:06;23.60;;;21.80;;
15454;SDS011;21057;51.024;7.540;2022-11-10T02:01:36;22.17;;;20.77;;
15454;SDS011;21057;51.024;7.540;2022-11-10T02:04:03;23.00;;;21.30;;
15454;SDS011;21057;51.024;7.540;2022-11-10T02:06:35;23.23;;;21.30;;
15454;SDS011;21057;51.024;7.540;2022-11-10T02:09:05;23.17;;;21.47;;
15454;SDS011;21057;51.024;7.540;2022-11-10T02:11:33;23.20;;;21.20;;
15454;SDS011;21057;51.024;7.540;2022-11-10T02:14:02;23.87;;;22.03;;
15454;SDS011;21057;51.024;7.540;2022-11-10T02:16:30;23.33;;;21.97;;
15454;SDS011;21057;51.024;7.540;2022-11-10T02:19:09;22.90;;;21.37;;
15454;SDS011;21057;51.024;7.540;2022-11-10T02:21:39;22.77;;;21.37;;
15454;SDS011;21057;51.024;7.540;2022-11-10T02:24:06;23.17;;;21.63;;
15454;SDS011;21057;51.024;7.540;2022-11-10T02:26:33;23.63;;;21.63;;
15454;SDS011;21057;51.024;7.540;2022-11-10T02:29:02;22.87;;;21.33;;
15454;SDS011;21057;51.024;7.540;2022-11-10T02:31:29;22.60;;;21.30;;
15454;SDS011;21057;51.024;7.540;2022-11-10T02:33:56;22.80;;;21.07;;
15454;SDS011;21057;51.024;7.540;2022-11-10T02:36:23;22.33;;;21.03;;
15454;SDS011;21057;51.024;7.540;2022-11-10T02:38:51;23.37;;;21.53;;
15454;SDS011;21057;51.024;7.540;2022-11-10T02:41:18;22.70;;;21.17;;
15454;SDS011;21057;51.024;7.540;2022-11-10T02:43:45;24.07;;;22.37;;
15454;SDS011;21057;51.024;7.540;2022-11-10T02:46:11;21.80;;;20.60;;
15454;SDS011;21057;51.024;7.540;2022-11-10T02:48:38;22.40;;;20.80;;
15454;SDS011;21057;51.024;7.540;2022-11-10T02:51:05;22.90;;;21.60;;
15454;SDS011;21057;51.024;7.540;2022-11-10T02:53:32;22.73;;;21.07;;
15454;SDS011;21057;51.024;7.540;2022-11-10T02:56:00;23.47;;;21.53;;
15454;SDS011;21057;51.024;7.540;2022-11-10T02:58:27;22.40;;;21.03;;
15454;SDS011;21057;51.024;7.540;2022-11-10T03:00:54;23.67;;;21.93;;
15454;SDS011;21057;51.024;7.540;2022-11-10T03:03:20;23.87;;;22.20;;
15454;SDS011;21057;51.024;7.540;2022-11-10T03:05:48;23.03;;;21.63;;
15454;SDS011;21057;51.024;7.540;2022-11-10T03:08:16;22.90;;;21.60;;
15454;SDS011;21057;51.024;7.540;2022-11-10T03:10:42;23.87;;;22.37;;
15454;SDS011;21057;51.024;7.540;2022-11-10T03:13:11;24.00;;;22.47;;
15454;SDS011;21057;51.024;7.540;2022-11-10T03:15:37;24.33;;;22.10;;
15454;SDS011;21057;51.024;7.540;2022-11-10T03:18:04;24.37;;;22.87;;
15454;SDS011;21057;51.024;7.540;2022-11-10T03:20:31;23.63;;;21.93;;
15454;SDS011;21057;51.024;7.540;2022-11-10T03:23:01;25.80;;;23.63;;
15454;SDS011;21057;51.024;7.540;2022-11-10T03:25:29;22.83;;;21.43;;
15454;SDS011;21057;51.024;7.540;2022-11-10T03:27:56;24.40;;;22.30;;
15454;SDS011;21057;51.024;7.540;2022-11-10T03:30:24;23.23;;;21.93;;
15454;SDS011;21057;51.024;7.540;2022-11-10T03:32:51;23.27;;;21.63;;
15454;SDS011;21057;51.024;7.540;2022-11-10T03:35:18;23.60;;;21.93;;
15454;SDS011;21057;51.024;7.540;2022-11-10T03:37:44;24.40;;;22.33;;
15454;SDS011;21057;51.024;7.540;2022-11-10T03:40:11;23.20;;;21.53;;
15454;SDS011;21057;51.024;7.540;2022-11-10T03:42:40;23.57;;;21.57;;
15454;SDS011;21057;51.024;7.540;2022-11-10T03:45:08;24.07;;;22.40;;
15454;SDS011;21057;51.024;7.540;2022-11-10T03:47:37;23.93;;;22.40;;
15454;SDS011;21057;51.024;7.540;2022-11-10T03:50:04;23.87;;;22.50;;
15454;SDS011;21057;51.024;7.540;2022-11-10T03:52:32;22.80;;;21.50;;
15454;SDS011;21057;51.024;7.540;2022-11-10T03:54:59;22.70;;;21.40;;
15454;SDS011;21057;51.024;7.540;2022-11-10T03:57:26;23.37;;;21.73;;
15454;SDS011;21057;51.024;7.540;2022-11-10T03:59:53;23.83;;;22.13;;
15454;SDS011;21057;51.024;7.540;2022-11-10T04:02:20;22.43;;;21.03;;
15454;SDS011;21057;51.024;7.540;2022-11-10T04:04:48;23.60;;;22.00;;
15454;SDS011;21057;51.024;7.540;2022-11-10T04:07:32;23.70;;;21.87;;
15454;SDS011;21057;51.024;7.540;2022-11-10T04:10:16;22.63;;;21.23;;
15454;SDS011;21057;51.024;7.540;2022-11-10T04:12:43;23.63;;;22.00;;
15454;SDS011;21057;51.024;7.540;2022-11-10T04:15:27;21.90;;;20.60;;
15454;SDS011;21057;51.024;7.540;2022-11-10T04:18:10;21.80;;;20.50;;
15454;SDS011;21057;51.024;7.540;2022-11-10T04:20:55;23.90;;;22.03;;
15454;SDS011;21057;51.024;7.540;2022-11-10T04:23:24;23.37;;;21.50;;
15454;SDS011;21057;51.024;7.540;2022-11-10T04:25:52;22.70;;;21.27;;
15454;SDS011;21057;51.024;7.540;2022-11-10T04:28:37;23.67;;;22.17;;
15454;SDS011;21057;51.024;7.540;2022-11-10T04:31:05;24.60;;;22.63;;
15454;SDS011;21057;51.024;7.540;2022-11-10T04:33:33;23.97;;;22.57;;
15454;SDS011;21057;51.024;7.540;2022-11-10T04:36:02;23.70;;;22.07;;
15454;SDS011;21057;51.024;7.540;2022-11-10T04:38:29;23.53;;;21.80;;
15454;SDS011;21057;51.024;7.540;2022-11-10T04:40:56;24.83;;;22.80;;
15454;SDS011;21057;51.024;7.540;2022-11-10T04:43:23;24.87;;;23.43;;
15454;SDS011;21057;51.024;7.540;2022-11-10T04:45:49;24.77;;;23.33;;
15454;SDS011;21057;51.024;7.540;2022-11-10T04:48:16;25.77;;;24.03;;
15454;SDS011;21057;51.024;7.540;2022-11-10T04:50:43;24.20;;;22.70;;
15454;SDS011;21057;51.024;7.540;2022-11-10T04:53:11;26.33;;;24.33;;
15454;SDS011;21057;51.024;7.540;2022-11-10T04:55:38;25.07;;;22.80;;
15454;SDS011;21057;51.024;7.540;2022-11-10T04:58:05;27.67;;;25.77;;
15454;SDS011;21057;51.024;7.540;2022-11-10T05:00:33;28.17;;;26.30;;
15454;SDS011;21057;51.024;7.540;2022-11-10T05:03:00;28.93;;;27.07;;
15454;SDS011;21057;51.024;7.540;2022-11-10T05:05:28;30.13;;;28.00;;
15454;SDS011;21057;51.024;7.540;2022-11-10T05:07:55;25.37;;;23.77;;
15454;SDS011;21057;51.024;7.540;2022-11-10T05:10:23;26.33;;;24.23;;
15454;SDS011;21057;51.024;7.540;2022-11-10T05:12:51;26.50;;;24.90;;
15454;SDS011;21057;51.024;7.540;2022-11-10T05:15:18;23.80;;;22.47;;
15454;SDS011;21057;51.024;7.540;2022-11-10T05:17:46;25.57;;;24.07;;
15454;SDS011;21057;51.024;7.540;2022-11-10T05:20:14;25.40;;;23.63;;
15454;SDS011;21057;51.024;7.540;2022-11-10T05:22:42;26.13;;;23.83;;
15454;SDS011;21057;51.024;7.540;2022-11-10T05:25:10;24.07;;;22.67;;
15454;SDS011;21057;51.024;7.540;2022-11-10T05:27:38;24.93;;;22.60;;
15454;SDS011;21057;51.024;7.540;2022-11-10T05:30:05;25.23;;;23.07;;
15454;SDS011;21057;51.024;7.540;2022-11-10T05:32:35;24.97;;;22.53;;
15454;SDS011;21057;51.024;7.540;2022-11-10T05:35:02;26.33;;;24.20;;
15454;SDS011;21057;51.024;7.540;2022-11-10T05:37:29;25.47;;;23.77;;
15454;SDS011;21057;51.024;7.540;2022-11-10T05:39:56;25.63;;;23.97;;
15454;SDS011;21057;51.024;7.540;2022-11-10T05:42:23;24.97;;;23.43;;
15454;SDS011;21057;51.024;7.540;2022-11-10T05:44:52;25.50;;;23.77;;
15454;SDS011;21057;51.024;7.540;2022-11-10T05:47:19;24.13;;;22.63;;
15454;SDS011;21057;51.024;7.540;2022-11-10T05:49:46;25.90;;;24.13;;
15454;SDS011;21057;51.024;7.540;2022-11-10T05:52:13;25.77;;;23.67;;
15454;SDS011;21057;51.024;7.540;2022-11-10T05:54:40;25.50;;;23.90;;
15454;SDS011;21057;51.024;7.540;2022-11-10T05:57:06;26.57;;;24.50;;
15454;SDS011;21057;51.024;7.540;2022-11-10T05:59:33;26.53;;;24.13;;
15454;SDS011;21057;51.024;7.540;2022-11-10T06:02:01;26.40;;;24.40;;
15454;SDS011;21057;51.024;7.540;2022-11-10T06:04:28;26.77;;;24.90;;
15454;SDS011;21057;51.024;7.540;2022-11-10T06:06:55;27.70;;;26.00;;
15454;SDS011;21057;51.024;7.540;2022-11-10T06:09:22;27.40;;;24.83;;
15454;SDS011;21057;51.024;7.540;2022-11-10T06:11:48;25.97;;;24.47;;
15454;SDS011;21057;51.024;7.540;2022-11-10T06:14:15;27.17;;;25.50;;
15454;SDS011;21057;51.024;7.540;2022-11-10T06:16:42;26.47;;;24.37;;
15454;SDS011;21057;51.024;7.540;2022-11-10T06:19:10;26.00;;;24.27;;
15454;SDS011;21057;51.024;7.540;2022-11-10T06:21:37;25.80;;;24.10;;
15454;SDS011;21057;51.024;7.540;2022-11-10T06:24:04;27.43;;;25.00;;
15454;SDS011;21057;51.024;7.540;2022-11-10T06:26:31;27.00;;;25.13;;
15454;SDS011;21057;51.024;7.540;2022-11-10T06:28:58;27.17;;;25.23;;
15454;SDS011;21057;51.024;7.540;2022-11-10T06:31:25;26.90;;;24.80;;
15454;SDS011;21057;51.024;7.540;2022-11-10T06:33:52;26.57;;;24.73;;
15454;SDS011;21057;51.024;7.540;2022-11-10T06:36:21;26.93;;;25.23;;
15454;SDS011;21057;51.024;7.540;2022-11-10T06:38:58;26.90;;;25.30;;
15454;SDS011;21057;51.024;7.540;2022-11-10T06:41:35;28.13;;;26.00;;
15454;SDS011;21057;51.024;7.540;2022-11-10T06:44:02;27.07;;;25.43;;
15454;SDS011;21057;51.024;7.540;2022-11-10T06:46:30;26.67;;;24.93;;
15454;SDS011;21057;51.024;7.540;2022-11-10T06:48:57;24.77;;;23.33;;
15454;SDS011;21057;51.024;7.540;2022-11-10T06:51:25;25.07;;;22.97;;
15454;SDS011;21057;51.024;7.540;2022-11-10T06:53:52;25.40;;;23.03;;
15454;SDS011;21057;51.024;7.540;2022-11-10T06:56:19;24.23;;;22.37;;
15454;SDS011;21057;51.024;7.540;2022-11-10T06:58:45;23.73;;;22.07;;
15454;SDS011;21057;51.024;7.540;2022-11-10T07:01:12;25.63;;;23.57;;
15454;SDS011;21057;51.024;7.540;2022-11-10T07:03:39;25.03;;;22.67;;
15454;SDS011;21057;51.024;7.540;2022-11-10T07:06:06;22.87;;;21.00;;
15454;SDS011;21057;51.024;7.540;2022-11-10T07:08:34;23.83;;;22.10;;
15454;SDS011;21057;51.024;7.540;2022-11-10T07:11:01;22.60;;;21.17;;
15454;SDS011;21057;51.024;7.540;2022-11-10T07:13:28;25.83;;;23.93;;
15454;SDS011;21057;51.024;7.540;2022-11-10T07:15:56;24.20;;;22.57;;
15454;SDS011;21057;51.024;7.540;2022-11-10T07:18:22;24.17;;;22.13;;
15454;SDS011;21057;51.024;7.540;2022-11-10T07:20:49;23.77;;;21.93;;
15454;SDS011;21057;51.024;7.540;2022-11-10T07:23:16;24.33;;;22.00;;
15454;SDS011;21057;51.024;7.540;2022-11-10T07:25:44;22.90;;;20.83;;
15454;SDS011;21057;51.024;7.540;2022-11-10T07:28:11;22.47;;;20.73;;
15454;SDS011;21057;51.024;7.540;2022-11-10T07:30:37;27.53;;;21.07;;
15454;SDS011;21057;51.024;7.540;2022-11-10T07:33:06;23.27;;;21.30;;
15454;SDS011;21057;51.024;7.540;2022-11-10T07:35:35;23.10;;;21.50;;
15454;SDS011;21057;51.024;7.540;2022-11-10T07:38:02;23.10;;;21.50;;
15454;SDS011;21057;51.024;7.540;2022-11-10T07:40:30;23.70;;;22.07;;
15454;SDS011;21057;51.024;7.540;2022-11-10T07:42:59;23.27;;;21.67;;
15454;SDS011;21057;51.024;7.540;2022-11-10T07:45:26;23.77;;;22.17;;
15454;SDS011;21057;51.024;7.540;2022-11-10T07:47:56;24.63;;;22.83;;
15454;SDS011;21057;51.024;7.540;2022-11-10T07:50:25;24.00;;;22.17;;
15454;SDS011;21057;51.024;7.540;2022-11-10T07:52:52;24.10;;;22.40;;
15454;SDS011;21057;51.024;7.540;2022-11-10T07:55:26;24.20;;;22.60;;
15454;SDS011;21057;51.024;7.540;2022-11-10T07:57:55;25.80;;;23.77;;
15454;SDS011;21057;51.024;7.540;2022-11-10T08:00:23;25.27;;;23.23;;
15454;SDS011;21057;51.024;7.540;2022-11-10T08:02:50;23.57;;;21.97;;
15454;SDS011;21057;51.024;7.540;2022-11-10T08:05:18;25.03;;;23.57;;
15454;SDS011;21057;51.024;7.540;2022-11-10T08:07:45;23.37;;;21.67;;
15454;SDS011;21057;51.024;7.540;2022-11-10T08:10:12;22.33;;;20.43;;
15454;SDS011;21057;51.024;7.540;2022-11-10T08:12:38;23.00;;;21.37;;
15454;SDS011;21057;51.024;7.540;2022-11-10T08:15:05;22.97;;;21.30;;
15454;SDS011;21057;51.024;7.540;2022-11-10T08:17:36;22.47;;;20.77;;
15454;SDS011;21057;51.024;7.540;2022-11-10T08:20:04;22.70;;;21.23;;
15454;SDS011;21057;51.024;7.540;2022-11-10T08:22:32;21.80;;;19.83;;
15454;SDS011;21057;51.024;7.540;2022-11-10T08:24:59;22.40;;;20.67;;
15454;SDS011;21057;51.024;7.540;2022-11-10T08:27:25;24.07;;;22.50;;
15454;SDS011;21057;51.024;7.540;2022-11-10T08:29:52;23.83;;;21.90;;
15454;SDS011;21057;51.024;7.540;2022-11-10T08:32:19;23.13;;;21.60;;
15454;SDS011;21057;51.024;7.540;2022-11-10T08:34:47;22.83;;;21.33;;
15454;SDS011;21057;51.024;7.540;2022-11-10T08:37:14;22.10;;;20.50;;
15454;SDS011;21057;51.024;7.540;2022-11-10T08:39:41;21.90;;;20.10;;
15454;SDS011;21057;51.024;7.540;2022-11-10T08:42:08;21.00;;;19.33;;
15454;SDS011;21057;51.024;7.540;2022-11-10T08:44:34;21.33;;;19.33;;
15454;SDS011;21057;51.024;7.540;2022-11-10T08:47:01;21.20;;;19.27;;
15454;SDS011;21057;51.024;7.540;2022-11-10T08:49:28;21.03;;;19.47;;
15454;SDS011;21057;51.024;7.540;2022-11-10T08:51:56;20.33;;;18.77;;
15454;SDS011;21057;51.024;7.540;2022-11-10T08:54:23;21.00;;;19.80;;
15454;SDS011;21057;51.024;7.540;2022-11-10T08:56:50;21.60;;;19.03;;
15454;SDS011;21057;51.024;7.540;2022-11-10T08:59:17;21.17;;;19.47;;
15454;SDS011;21057;51.024;7.540;2022-11-10T09:01:43;23.13;;;21.53;;
15454;SDS011;21057;51.024;7.540;2022-11-10T09:04:10;22.60;;;20.50;;
15454;SDS011;21057;51.024;7.540;2022-11-10T09:06:39;21.87;;;20.57;;
15454;SDS011;21057;51.024;7.540;2022-11-10T09:09:07;21.27;;;19.80;;
15454;SDS011;21057;51.024;7.540;2022-11-10T09:11:35;20.60;;;19.40;;
15454;SDS011;21057;51.024;7.540;2022-11-10T09:14:01;20.47;;;19.07;;
15454;SDS011;21057;51.024;7.540;2022-11-10T09:16:28;22.33;;;20.47;;
15454;SDS011;21057;51.024;7.540;2022-11-10T09:18:55;20.90;;;19.47;;
15454;SDS011;21057;51.024;7.540;2022-11-10T09:21:23;22.10;;;20.70;;
15454;SDS011;21057;51.024;7.540;2022-11-10T09:23:50;20.80;;;19.30;;
15454;SDS011;21057;51.024;7.540;2022-11-10T09:26:18;22.50;;;20.97;;
15454;SDS011;21057;51.024;7.540;2022-11-10T09:28:45;22.13;;;20.37;;
15454;SDS011;21057;51.024;7.540;2022-11-10T09:31:11;22.80;;;21.40;;
15454;SDS011;21057;51.024;7.540;2022-11-10T09:33:38;22.43;;;20.87;;
15454;SDS011;21057;51.024;7.540;2022-11-10T09:36:05;24.07;;;22.37;;
15454;SDS011;21057;51.024;7.540;2022-11-10T09:38:32;24.03;;;21.83;;
15454;SDS011;21057;51.024;7.540;2022-11-10T09:41:00;22.03;;;20.53;;
15454;SDS011;21057;51.024;7.540;2022-11-10T09:43:32;22.53;;;20.97;;
15454;SDS011;21057;51.024;7.540;2022-11-10T09:46:04;21.63;;;20.33;;
15454;SDS011;21057;51.024;7.540;2022-11-10T09:48:40;21.07;;;19.77;;
15454;SDS011;21057;51.024;7.540;2022-11-10T09:51:14;22.10;;;20.40;;
15454;SDS011;21057;51.024;7.540;2022-11-10T09:53:46;21.83;;;20.33;;
15454;SDS011;21057;51.024;7.540;2022-11-10T09:56:17;22.43;;;20.53;;
15454;SDS011;21057;51.024;7.540;2022-11-10T09:58:47;21.97;;;19.93;;
15454;SDS011;21057;51.024;7.540;2022-11-10T10:01:23;22.10;;;19.97;;
15454;SDS011;21057;51.024;7.540;2022-11-10T10:04:00;25.47;;;20.30;;
15454;SDS011;21057;51.024;7.540;2022-11-10T10:06:39;22.57;;;20.30;;
15454;SDS011;21057;51.024;7.540;2022-11-10T10:09:15;20.20;;;18.90;;
15454;SDS011;21057;51.024;7.540;2022-11-10T10:11:52;21.33;;;19.40;;
15454;SDS011;21057;51.024;7.540;2022-11-10T10:14:35;21.43;;;20.13;;
15454;SDS011;21057;51.024;7.540;2022-11-10T10:17:25;20.67;;;18.77;;
15454;SDS011;21057;51.024;7.540;2022-11-10T10:19:56;19.83;;;18.30;;
15454;SDS011;21057;51.024;7.540;2022-11-10T10:25:29;21.33;;;19.63;;
15454;SDS011;21057;51.024;7.540;2022-11-10T10:27:58;21.03;;;19.23;;
15454;SDS011;21057;51.024;7.540;2022-11-10T10:30:31;21.10;;;19.23;;
15454;SDS011;21057;51.024;7.540;2022-11-10T10:32:59;20.10;;;18.77;;
15454;SDS011;21057;51.024;7.540;2022-11-10T10:35:36;20.60;;;18.87;;
15454;SDS011;21057;51.024;7.540;2022-11-10T10:38:04;21.03;;;19.83;;
15454;SDS011;21057;51.024;7.540;2022-11-10T10:40:41;20.53;;;19.23;;
15454;SDS011;21057;51.024;7.540;2022-11-10T10:43:10;21.77;;;19.70;;
15454;SDS011;21057;51.024;7.540;2022-11-10T10:45:38;21.67;;;20.00;;
15454;SDS011;21057;51.024;7.540;2022-11-10T10:48:20;21.30;;;19.70;;
15454;SDS011;21057;51.024;7.540;2022-11-10T10:50:49;21.13;;;19.90;;
15454;SDS011;21057;51.024;7.540;2022-11-10T10:53:17;20.60;;;19.20;;
15454;SDS011;21057;51.024;7.540;2022-11-10T10:55:46;20.97;;;19.67;;
15454;SDS011;21057;51.024;7.540;2022-11-10T10:58:23;19.70;;;18.03;;
15454;SDS011;21057;51.024;7.540;2022-11-10T11:00:53;19.63;;;18.33;;
15454;SDS011;21057;51.024;7.540;2022-11-10T11:03:24;18.40;;;17.30;;
15454;SDS011;21057;51.024;7.540;2022-11-10T11:06:00;18.93;;;17.83;;
15454;SDS011;21057;51.024;7.540;2022-11-10T11:08:29;19.70;;;18.20;;
15454;SDS011;21057;51.024;7.540;2022-11-10T11:10:58;21.23;;;19.47;;
15454;SDS011;21057;51.024;7.540;2022-11-10T11:13:33;18.93;;;17.80;;
15454;SDS011;21057;51.024;7.540;2022-11-10T11:16:02;20.20;;;18.70;;
15454;SDS011;21057;51.024;7.540;2022-11-10T11:18:31;20.30;;;18.63;;
15454;SDS011;21057;51.024;7.540;2022-11-10T11:20:59;21.27;;;19.53;;
15454;SDS011;21057;51.024;7.540;2022-11-10T11:23:34;20.30;;;18.77;;
15454;SDS011;21057;51.024;7.540;2022-11-10T11:26:14;19.23;;;17.80;;
15454;SDS011;21057;51.024;7.540;2022-11-10T11:28:50;20.97;;;19.13;;
15454;SDS011;21057;51.024;7.540;2022-11-10T11:31:29;20.67;;;19.33;;
15454;SDS011;21057;51.024;7.540;2022-11-10T11:34:07;21.63;;;20.17;;
15454;SDS011;21057;51.024;7.540;2022-11-10T11:36:40;20.10;;;18.67;;
15454;SDS011;21057;51.024;7.540;2022-11-10T11:39:18;18.87;;;17.67;;
15454;SDS011;21057;51.024;7.540;2022-11-10T11:41:57;21.30;;;19.53;;
15454;SDS011;21057;51.024;7.540;2022-11-10T11:44:40;20.37;;;18.97;;
15454;SDS011;21057;51.024;7.540;2022-11-10T11:47:20;20.33;;;18.73;;
15454;SDS011;21057;51.024;7.540;2022-11-10T11:50:08;20.90;;;18.97;;
15454;SDS011;21057;51.024;7.540;2022-11-10T11:52:48;20.37;;;18.77;;
15454;SDS011;21057;51.024;7.540;2022-11-10T11:55:24;20.67;;;19.00;;
15454;SDS011;21057;51.024;7.540;2022-11-10T11:58:16;19.57;;;18.23;;
15454;SDS011;21057;51.024;7.540;2022-11-10T12:00:58;20.47;;;19.17;;
15454;SDS011;21057;51.024;7.540;2022-11-10T12:03:35;20.50;;;18.77;;
15454;SDS011;21057;51.024;7.540;2022-11-10T12:06:26;20.80;;;19.47;;
15454;SDS011;21057;51.024;7.540;2022-11-10T12:09:05;20.70;;;19.20;;
15454;SDS011;21057;51.024;7.540;2022-11-10T12:11:45;19.70;;;18.53;;
15454;SDS011;21057;51.024;7.540;2022-11-10T12:14:25;21.70;;;19.80;;
15454;SDS011;21057;51.024;7.540;2022-11-10T12:17:03;19.00;;;17.80;;
15454;SDS011;21057;51.024;7.540;2022-11-10T12:19:37;19.20;;;17.90;;
15454;SDS011;21057;51.024;7.540;2022-11-10T12:22:11;19.40;;;18.00;;
15454;SDS011;21057;51.024;7.540;2022-11-10T12:24:52;19.80;;;17.87;;
15454;SDS011;21057;51.024;7.540;2022-11-10T12:27:30;18.93;;;17.63;;
15454;SDS011;21057;51.024;7.540;2022-11-10T12:30:01;19.13;;;17.83;;
15454;SDS011;21057;51.024;7.540;2022-11-10T12:32:31;19.97;;;18.57;;
15454;SDS011;21057;51.024;7.540;2022-11-10T12:35:06;18.80;;;17.77;;
15454;SDS011;21057;51.024;7.540;2022-11-10T12:37:42;19.43;;;17.93;;
15454;SDS011;21057;51.024;7.540;2022-11-10T12:40:13;19.23;;;18.03;;
15454;SDS011;21057;51.024;7.540;2022-11-10T12:42:42;19.50;;;18.30;;
15454;SDS011;21057;51.024;7.540;2022-11-10T12:45:15;19.97;;;18.43;;
15454;SDS011;21057;51.024;7.540;2022-11-10T12:47:45;20.03;;;18.40;;
15454;SDS011;21057;51.024;7.540;2022-11-10T12:50:20;20.60;;;19.03;;
15454;SDS011;21057;51.024;7.540;2022-11-10T12:52:53;19.63;;;18.30;;
15454;SDS011;21057;51.024;7.540;2022-11-10T12:55:26;20.63;;;19.03;;
15454;SDS011;21057;51.024;7.540;2022-11-10T12:58:00;19.70;;;18.20;;
15454;SDS011;21057;51.024;7.540;2022-11-10T13:00:29;20.17;;;18.50;;
15454;SDS011;21057;51.024;7.540;2022-11-10T13:03:01;22.53;;;18.73;;
15454;SDS011;21057;51.024;7.540;2022-11-10T13:05:31;19.77;;;18.27;;
15454;SDS011;21057;51.024;7.540;2022-11-10T13:08:05;19.60;;;18.33;;
15454;SDS011;21057;51.024;7.540;2022-11-10T13:10:54;19.70;;;18.27;;
15454;SDS011;21057;51.024;7.540;2022-11-10T13:13:22;19.57;;;18.37;;
15454;SDS011;21057;51.024;7.540;2022-11-10T13:15:51;19.00;;;17.90;;
15454;SDS011;21057;51.024;7.540;2022-11-10T13:18:21;19.00;;;17.90;;
15454;SDS011;21057;51.024;7.540;2022-11-10T13:20:53;19.63;;;18.27;;
15454;SDS011;21057;51.024;7.540;2022-11-10T13:23:26;18.67;;;17.47;;
15454;SDS011;21057;51.024;7.540;2022-11-10T13:25:55;19.10;;;17.80;;
15454;SDS011;21057;51.024;7.540;2022-11-10T13:31:39;19.60;;;18.23;;
15454;SDS011;21057;51.024;7.540;2022-11-10T13:34:25;19.33;;;18.17;;
15454;SDS011;21057;51.024;7.540;2022-11-10T13:36:58;19.10;;;18.00;;
15454;SDS011;21057;51.024;7.540;2022-11-10T13:39:27;18.47;;;17.30;;
15454;SDS011;21057;51.024;7.540;2022-11-10T13:41:59;18.63;;;17.20;;
15454;SDS011;21057;51.024;7.540;2022-11-10T13:44:29;19.20;;;17.97;;
15454;SDS011;21057;51.024;7.540;2022-11-10T13:52:59;18.93;;;17.73;;
15454;SDS011;21057;51.024;7.540;2022-11-10T13:55:37;19.30;;;17.90;;
15454;SDS011;21057;51.024;7.540;2022-11-10T13:58:19;19.07;;;17.60;;
15454;SDS011;21057;51.024;7.540;2022-11-10T14:00:52;19.67;;;17.90;;
15454;SDS011;21057;51.024;7.540;2022-11-10T14:03:55;19.40;;;17.77;;
15454;SDS011;21057;51.024;7.540;2022-11-10T14:06:26;18.70;;;17.60;;
15454;SDS011;21057;51.024;7.540;2022-11-10T14:09:03;20.60;;;18.50;;
15454;SDS011;21057;51.024;7.540;2022-11-10T14:11:35;19.53;;;18.00;;
15454;SDS011;21057;51.024;7.540;2022-11-10T14:14:09;19.17;;;17.87;;
15454;SDS011;21057;51.024;7.540;2022-11-10T14:16:40;19.50;;;18.30;;
15454;SDS011;21057;51.024;7.540;2022-11-10T14:19:17;18.43;;;17.33;;
15454;SDS011;21057;51.024;7.540;2022-11-10T14:21:55;19.00;;;17.73;;
15454;SDS011;21057;51.024;7.540;2022-11-10T14:24:26;18.67;;;17.13;;
15454;SDS011;21057;51.024;7.540;2022-11-10T14:26:56;18.53;;;17.10;;
15454;SDS011;21057;51.024;7.540;2022-11-10T14:29:31;18.47;;;17.27;;
15454;SDS011;21057;51.024;7.540;2022-11-10T14:32:05;19.33;;;17.90;;
15454;SDS011;21057;51.024;7.540;2022-11-10T14:34:43;19.00;;;17.53;;
15454;SDS011;21057;51.024;7.540;2022-11-10T14:37:17;18.57;;;17.03;;
15454;SDS011;21057;51.024;7.540;2022-11-10T14:39:49;18.90;;;17.40;;
15454;SDS011;21057;51.024;7.540;2022-11-10T14:42:19;18.43;;;17.13;;
15454;SDS011;21057;51.024;7.540;2022-11-10T14:44:48;18.70;;;17.50;;
15454;SDS011;21057;51.024;7.540;2022-11-10T14:47:24;19.00;;;17.60;;
15454;SDS011;21057;51.024;7.540;2022-11-10T14:50:02;18.80;;;17.60;;